createdAt,value
2018-09-24T00:01:38.000Z,28.1
2018-09-24T00:03:38.000Z,28.1
2018-09-24T00:05:23.000Z,28.1
2018-09-24T00:06:38.000Z,28
2018-09-24T00:07:38.000Z,28
2018-09-24T00:09:38.000Z,28
2018-09-24T00:11:38.000Z,28
2018-09-24T00:13:38.000Z,28
2018-09-24T00:15:38.000Z,28
2018-09-24T00:16:38.000Z,28
2018-09-24T00:18:38.000Z,28
2018-09-24T00:19:38.000Z,28
2018-09-24T00:21:38.000Z,28.1
2018-09-24T00:23:38.000Z,28.1
2018-09-24T00:24:38.000Z,28.1
2018-09-24T00:26:38.000Z,28.1
2018-09-24T00:28:38.000Z,28
2018-09-24T00:30:38.000Z,28
2018-09-24T00:32:38.000Z,27.9
2018-09-24T00:33:38.000Z,27.9
2018-09-24T00:35:38.000Z,27.9
2018-09-24T00:36:38.000Z,27.9
2018-09-24T00:38:38.000Z,28
2018-09-24T00:40:38.000Z,28
2018-09-24T00:41:38.000Z,28
2018-09-24T00:42:38.000Z,28
2018-09-24T00:44:38.000Z,28.1
2018-09-24T00:45:38.000Z,28.1
2018-09-24T00:46:38.000Z,28.2
2018-09-24T00:47:38.000Z,28.2
2018-09-24T00:49:38.000Z,28.3
2018-09-24T00:50:38.000Z,28.3
2018-09-24T00:51:38.000Z,28.3
2018-09-24T00:53:23.000Z,28.3
2018-09-24T00:54:38.000Z,28.2
2018-09-24T00:55:38.000Z,28.2
2018-09-24T00:57:38.000Z,28.2
2018-09-24T00:58:38.000Z,28.2
2018-09-24T00:59:38.000Z,28.2
2018-09-24T01:01:38.000Z,28.2
2018-09-24T01:03:38.000Z,28
2018-09-24T01:05:38.000Z,28
2018-09-24T01:06:38.000Z,28
2018-09-24T01:08:38.000Z,28
2018-09-24T01:10:38.000Z,28
2018-09-24T01:11:38.000Z,28
2018-09-24T01:13:38.000Z,28
2018-09-24T01:15:38.000Z,28
2018-09-24T01:17:38.000Z,28
2018-09-24T01:18:38.000Z,28
2018-09-24T01:20:38.000Z,28
2018-09-24T01:22:38.000Z,27.9
2018-09-24T01:23:38.000Z,27.9
2018-09-24T01:25:38.000Z,27.9
2018-09-24T01:26:38.000Z,28
2018-09-24T01:28:38.000Z,28
2018-09-24T01:29:38.000Z,28
2018-09-24T01:31:23.000Z,28
2018-09-24T01:32:38.000Z,28
2018-09-24T01:33:38.000Z,28
2018-09-24T01:35:38.000Z,28
2018-09-24T01:36:38.000Z,28
2018-09-24T01:37:38.000Z,28.1
2018-09-24T01:38:38.000Z,28.1
2018-09-24T01:40:23.000Z,28.2
2018-09-24T01:41:38.000Z,28.2
2018-09-24T01:43:38.000Z,28.1
2018-09-24T01:45:38.000Z,28
2018-09-24T01:47:38.000Z,27.9
2018-09-24T01:49:38.000Z,27.9
2018-09-24T01:50:38.000Z,27.9
2018-09-24T01:51:38.000Z,28
2018-09-24T01:53:38.000Z,28
2018-09-24T01:55:37.000Z,28
2018-09-24T01:56:37.000Z,28
2018-09-24T01:58:37.000Z,28
2018-09-24T02:00:22.000Z,28
2018-09-24T02:01:37.000Z,28
2018-09-24T02:02:37.000Z,28
2018-09-24T02:04:37.000Z,28
2018-09-24T02:05:37.000Z,28
2018-09-24T02:07:37.000Z,28
2018-09-24T02:09:37.000Z,28
2018-09-24T02:10:37.000Z,28
2018-09-24T02:12:37.000Z,28
2018-09-24T02:13:37.000Z,28
2018-09-24T02:14:37.000Z,28
2018-09-24T02:16:37.000Z,28
2018-09-24T02:17:37.000Z,28
2018-09-24T02:18:37.000Z,28
2018-09-24T02:20:37.000Z,28
2018-09-24T02:21:37.000Z,28
2018-09-24T02:22:37.000Z,28
2018-09-24T02:24:37.000Z,28.1
2018-09-24T02:25:37.000Z,28.1
2018-09-24T02:27:37.000Z,28.1
2018-09-24T02:28:37.000Z,28.1
2018-09-24T02:29:37.000Z,28.1
2018-09-24T02:31:37.000Z,28.1
2018-09-24T02:32:37.000Z,28.1
2018-09-24T02:34:37.000Z,28.1
2018-09-24T02:36:37.000Z,28
2018-09-24T02:38:37.000Z,27.9
2018-09-24T02:40:37.000Z,27.8
2018-09-24T02:42:37.000Z,27.8
2018-09-24T02:44:37.000Z,27.7
2018-09-24T02:45:37.000Z,27.7
2018-09-24T02:47:37.000Z,27.7
2018-09-24T02:48:37.000Z,27.7
2018-09-24T02:50:37.000Z,27.8
2018-09-24T02:52:37.000Z,27.8
2018-09-24T02:53:37.000Z,27.8
2018-09-24T02:54:37.000Z,27.9
2018-09-24T02:56:37.000Z,27.9
2018-09-24T02:57:37.000Z,28
2018-09-24T02:59:37.000Z,28
2018-09-24T03:00:38.000Z,28
2018-09-24T03:02:38.000Z,27.9
2018-09-24T03:04:38.000Z,27.9
2018-09-24T03:06:37.000Z,27.8
2018-09-24T03:07:38.000Z,27.8
2018-09-24T03:09:38.000Z,27.7
2018-09-24T03:10:38.000Z,27.7
2018-09-24T03:12:38.000Z,27.8
2018-09-24T03:14:22.000Z,27.8
2018-09-24T03:15:38.000Z,27.8
2018-09-24T03:16:38.000Z,27.8
2018-09-24T03:18:38.000Z,27.8
2018-09-24T03:19:38.000Z,27.9
2018-09-24T03:20:38.000Z,27.9
2018-09-24T03:21:38.000Z,27.9
2018-09-24T03:23:22.000Z,28
2018-09-24T03:24:38.000Z,27.9
2018-09-24T03:25:38.000Z,27.9
2018-09-24T03:27:38.000Z,28
2018-09-24T03:29:38.000Z,27.9
2018-09-24T03:30:38.000Z,27.9
2018-09-24T03:32:38.000Z,27.9
2018-09-24T03:34:38.000Z,27.9
2018-09-24T03:35:38.000Z,27.9
2018-09-24T03:37:38.000Z,27.9
2018-09-24T03:39:38.000Z,27.9
2018-09-24T03:41:38.000Z,27.8
2018-09-24T03:43:38.000Z,27.8
2018-09-24T03:44:38.000Z,27.8
2018-09-24T03:46:37.000Z,27.8
2018-09-24T03:47:38.000Z,27.8
2018-09-24T03:49:38.000Z,27.8
2018-09-24T03:50:38.000Z,27.8
2018-09-24T03:52:38.000Z,27.9
2018-09-24T03:54:38.000Z,27.8
2018-09-24T03:55:38.000Z,27.8
2018-09-24T03:57:38.000Z,27.8
2018-09-24T03:59:38.000Z,27.8
2018-09-24T04:01:38.000Z,27.7
2018-09-24T04:02:40.000Z,27.7
2018-09-24T04:04:37.000Z,27.8
2018-09-24T04:05:37.000Z,27.8
2018-09-24T04:06:37.000Z,27.8
2018-09-24T04:08:37.000Z,27.8
2018-09-24T04:10:37.000Z,27.7
2018-09-24T04:12:37.000Z,27.7
2018-09-24T04:44:35.000Z,25.7
2018-09-24T04:46:21.000Z,26
2018-09-24T04:47:21.000Z,26.3
2018-09-24T04:48:21.000Z,26.4
2018-09-24T04:50:21.000Z,26.7
2018-09-24T04:51:21.000Z,26.9
2018-09-24T04:52:21.000Z,27
2018-09-24T04:54:06.000Z,27.2
2018-09-24T04:55:21.000Z,27.3
2018-09-24T04:56:21.000Z,27.3
2018-09-24T04:58:21.000Z,27.5
2018-09-24T04:59:21.000Z,27.5
2018-09-24T05:01:21.000Z,27.5
2018-09-24T05:03:21.000Z,27.5
2018-09-24T05:04:23.000Z,27.5
2018-09-24T05:05:23.000Z,27.5
2018-09-24T05:07:23.000Z,27.5
2018-09-24T05:08:23.000Z,27.5
2018-09-24T05:10:23.000Z,27.6
2018-09-24T05:11:23.000Z,27.6
2018-09-24T05:13:23.000Z,27.6
2018-09-24T05:14:23.000Z,27.6
2018-09-24T05:16:23.000Z,27.6
2018-09-24T05:18:23.000Z,27.6
2018-09-24T05:20:23.000Z,27.6
2018-09-24T05:21:23.000Z,27.5
2018-09-24T05:22:23.000Z,27.6
2018-09-24T05:24:23.000Z,27.6
2018-09-24T05:26:23.000Z,27.7
2018-09-24T05:27:23.000Z,27.7
2018-09-24T05:28:23.000Z,27.8
2018-09-24T05:30:23.000Z,27.9
2018-09-24T05:31:23.000Z,28
2018-09-24T05:32:23.000Z,28
2018-09-24T05:34:23.000Z,28
2018-09-24T05:36:23.000Z,28.1
2018-09-24T05:37:23.000Z,28.1
2018-09-24T05:39:23.000Z,28.1
2018-09-24T05:40:23.000Z,28.2
2018-09-24T05:41:23.000Z,28.2
2018-09-24T05:43:08.000Z,28.2
2018-09-24T05:44:23.000Z,28.2
2018-09-24T05:45:23.000Z,28.2
2018-09-24T05:47:23.000Z,28.2
2018-09-24T05:49:23.000Z,28.2
2018-09-24T05:50:23.000Z,28.1
2018-09-24T05:52:23.000Z,28.2
2018-09-24T05:53:23.000Z,28.3
2018-09-24T05:55:23.000Z,28.4
2018-09-24T05:57:23.000Z,28.4
2018-09-24T05:58:23.000Z,28.4
2018-09-24T05:59:23.000Z,28.5
2018-09-24T06:01:08.000Z,28.6
2018-09-24T06:02:23.000Z,28.6
2018-09-24T06:04:23.000Z,28.6
2018-09-24T06:05:23.000Z,28.6
2018-09-24T06:07:23.000Z,28.6
2018-09-24T06:08:23.000Z,28.7
2018-09-24T06:10:23.000Z,28.7
2018-09-24T06:12:23.000Z,28.8
2018-09-24T06:13:23.000Z,28.8
2018-09-24T06:15:23.000Z,28.8
2018-09-24T06:17:23.000Z,28.8
2018-09-24T06:19:23.000Z,28.7
2018-09-24T06:21:23.000Z,28.7
2018-09-24T06:23:23.000Z,28.7
2018-09-24T06:25:23.000Z,28.7
2018-09-24T06:26:23.000Z,28.7
2018-09-24T06:27:23.000Z,28.7
2018-09-24T06:29:23.000Z,28.9
2018-09-24T06:30:23.000Z,28.9
2018-09-24T06:32:23.000Z,29
2018-09-24T06:34:23.000Z,29.1
2018-09-24T06:36:23.000Z,29.1
2018-09-24T06:37:23.000Z,29.1
2018-09-24T06:38:23.000Z,29.1
2018-09-24T06:40:23.000Z,29.3
2018-09-24T06:41:23.000Z,29.3
2018-09-24T06:42:23.000Z,29.4
2018-09-24T06:43:23.000Z,29.4
2018-09-24T06:45:23.000Z,29.5
2018-09-24T06:46:23.000Z,29.6
2018-09-24T06:48:23.000Z,29.6
2018-09-24T06:50:08.000Z,29.7
2018-09-24T06:51:23.000Z,29.7
2018-09-24T06:53:23.000Z,29.7
2018-09-24T06:55:08.000Z,29.8
2018-09-24T06:56:23.000Z,29.8
2018-09-24T06:57:23.000Z,29.8
2018-09-24T06:59:23.000Z,29.9
2018-09-24T07:00:23.000Z,29.9
2018-09-24T07:02:23.000Z,30
2018-09-24T07:04:23.000Z,30.1
2018-09-24T07:05:23.000Z,30.1
2018-09-24T07:07:23.000Z,30.2
2018-09-24T07:08:23.000Z,30.3
2018-09-24T07:10:23.000Z,30.4
2018-09-24T07:11:23.000Z,30.4
2018-09-24T07:13:08.000Z,30.5
2018-09-24T07:14:23.000Z,30.5
2018-09-24T07:16:23.000Z,30.5
2018-09-24T07:18:23.000Z,30.5
2018-09-24T07:19:23.000Z,30.6
2018-09-24T07:21:23.000Z,30.7
2018-09-24T07:23:23.000Z,30.7
2018-09-24T07:24:23.000Z,30.7
2018-09-24T07:25:23.000Z,30.8
2018-09-24T07:26:23.000Z,30.9
2018-09-24T07:28:23.000Z,31.1
2018-09-24T07:30:23.000Z,31.2
2018-09-24T07:32:23.000Z,31.2
2018-09-24T07:34:08.000Z,31.3
2018-09-24T07:35:23.000Z,31.4
2018-09-24T07:36:23.000Z,31.5
2018-09-24T07:38:23.000Z,31.7
2018-09-24T07:39:23.000Z,31.8
2018-09-24T07:40:23.000Z,31.9
2018-09-24T07:42:23.000Z,32.2
2018-09-24T07:44:23.000Z,32.3
2018-09-24T07:46:23.000Z,32.4
2018-09-24T07:48:23.000Z,32.5
2018-09-24T07:50:23.000Z,32.7
2018-09-24T07:52:23.000Z,32.6
2018-09-24T07:54:23.000Z,32.2
2018-09-24T07:56:23.000Z,31.9
2018-09-24T07:58:23.000Z,31.6
2018-09-24T07:59:23.000Z,31.5
2018-09-24T08:01:23.000Z,31.4
2018-09-24T08:02:23.000Z,31.4
2018-09-24T08:04:23.000Z,31.4
2018-09-24T08:06:08.000Z,31.3
2018-09-24T08:07:23.000Z,31.2
2018-09-24T08:09:23.000Z,31.1
2018-09-24T08:11:23.000Z,31
2018-09-24T08:12:23.000Z,31
2018-09-24T08:13:23.000Z,31
2018-09-24T08:15:23.000Z,31
2018-09-24T08:17:23.000Z,30.9
2018-09-24T08:54:57.000Z,28.6
2018-09-24T08:55:57.000Z,28.7
2018-09-24T08:57:57.000Z,29
2018-09-24T08:59:57.000Z,29.3
2018-09-24T09:01:57.000Z,29.6
2018-09-24T09:02:57.000Z,29.7
2018-09-24T09:04:57.000Z,30
2018-09-24T09:05:57.000Z,30.1
2018-09-24T09:07:42.000Z,30.2
2018-09-24T09:08:57.000Z,30.2
2018-09-24T09:09:57.000Z,30.3
2018-09-24T09:11:57.000Z,30.4
2018-09-24T09:12:57.000Z,30.4
2018-09-24T09:14:57.000Z,30.5
2018-09-24T09:16:57.000Z,30.5
2018-09-24T09:18:57.000Z,30.5
2018-09-24T09:20:57.000Z,30.5
2018-09-24T09:21:57.000Z,30.5
2018-09-24T09:22:57.000Z,30.5
2018-09-24T09:24:57.000Z,30.6
2018-09-24T09:26:57.000Z,30.5
2018-09-24T09:28:57.000Z,30.5
2018-09-24T09:30:57.000Z,30.5
2018-09-24T09:32:57.000Z,30.5
2018-09-24T09:33:57.000Z,30.6
2018-09-24T09:35:57.000Z,30.6
2018-09-24T09:36:57.000Z,30.6
2018-09-24T09:38:57.000Z,30.6
2018-09-24T09:39:57.000Z,30.6
2018-09-24T09:40:57.000Z,30.6
2018-09-24T09:42:57.000Z,30.7
2018-09-24T09:44:57.000Z,30.7
2018-09-24T09:46:57.000Z,30.7
2018-09-24T09:47:57.000Z,30.7
2018-09-24T09:49:57.000Z,30.7
2018-09-24T09:50:57.000Z,30.7
2018-09-24T09:52:57.000Z,30.7
2018-09-24T09:54:57.000Z,30.6
2018-09-24T09:55:57.000Z,30.6
2018-09-24T09:57:57.000Z,30.7
2018-09-24T09:59:57.000Z,30.7
2018-09-24T10:01:57.000Z,30.6
2018-09-24T10:02:57.000Z,30.6
2018-09-24T10:04:57.000Z,30.6
2018-09-24T10:05:57.000Z,30.6
2018-09-24T10:07:58.000Z,30.7
2018-09-24T10:09:57.000Z,30.7
2018-09-24T10:11:57.000Z,30.7
2018-09-24T10:12:57.000Z,30.7
2018-09-24T10:14:57.000Z,30.8
2018-09-24T10:16:57.000Z,30.7
2018-09-24T10:18:57.000Z,30.7
2018-09-24T10:20:57.000Z,30.6
2018-09-24T10:21:57.000Z,30.6
2018-09-24T10:23:57.000Z,30.6
2018-09-24T10:24:57.000Z,30.6
2018-09-24T10:25:57.000Z,30.7
2018-09-24T10:27:57.000Z,30.7
2018-09-24T10:28:57.000Z,30.7
2018-09-24T10:30:42.000Z,30.8
2018-09-24T10:31:57.000Z,30.8
2018-09-24T10:33:57.000Z,30.7
2018-09-24T10:35:57.000Z,30.7
2018-09-24T10:37:57.000Z,30.7
2018-09-24T10:38:57.000Z,30.7
2018-09-24T10:39:57.000Z,30.7
2018-09-24T10:41:57.000Z,30.6
2018-09-24T10:43:57.000Z,30.6
2018-09-24T10:44:57.000Z,30.6
2018-09-24T10:46:42.000Z,30.7
2018-09-24T10:47:57.000Z,30.7
2018-09-24T10:48:57.000Z,30.7
2018-09-24T10:49:57.000Z,30.8
2018-09-24T10:51:57.000Z,30.9
2018-09-24T10:53:57.000Z,30.9
2018-09-24T10:54:57.000Z,30.9
2018-09-24T10:56:57.000Z,30.9
2018-09-24T10:57:57.000Z,30.9
2018-09-24T10:59:42.000Z,30.9
2018-09-24T11:00:57.000Z,30.9
2018-09-24T11:02:57.000Z,30.8
2018-09-24T11:04:42.000Z,30.8
2018-09-24T11:05:57.000Z,30.7
2018-09-24T11:07:57.000Z,30.8
2018-09-24T11:09:57.000Z,30.7
2018-09-24T11:11:57.000Z,30.7
2018-09-24T11:13:57.000Z,30.7
2018-09-24T11:15:57.000Z,30.7
2018-09-24T11:16:57.000Z,30.7
2018-09-24T11:18:57.000Z,30.8
2018-09-24T11:20:42.000Z,30.8
2018-09-24T11:21:57.000Z,30.8
2018-09-24T11:23:57.000Z,30.8
2018-09-24T11:25:57.000Z,30.8
2018-09-24T11:27:57.000Z,30.8
2018-09-24T11:29:57.000Z,30.7
2018-09-24T11:31:57.000Z,30.7
2018-09-24T11:33:57.000Z,30.7
2018-09-24T11:35:57.000Z,30.6
2018-09-24T11:37:42.000Z,30.6
2018-09-24T11:38:57.000Z,30.5
2018-09-24T11:40:57.000Z,30.5
2018-09-24T11:41:57.000Z,30.5
2018-09-24T11:43:57.000Z,30.6
2018-09-24T11:44:57.000Z,30.6
2018-09-24T11:45:57.000Z,30.7
2018-09-24T11:47:57.000Z,30.8
2018-09-24T11:49:42.000Z,30.8
2018-09-24T11:50:57.000Z,30.8
2018-09-24T11:51:57.000Z,30.9
2018-09-24T11:53:57.000Z,30.9
2018-09-24T11:54:57.000Z,30.9
2018-09-24T11:56:57.000Z,30.9
2018-09-24T11:58:57.000Z,30.9
2018-09-24T12:00:57.000Z,30.8
2018-09-24T12:01:57.000Z,30.8
2018-09-24T12:03:42.000Z,30.9
2018-09-24T12:04:57.000Z,30.9
2018-09-24T12:05:57.000Z,30.9
2018-09-24T12:07:57.000Z,30.9
2018-09-24T12:09:57.000Z,30.9
2018-09-24T12:11:57.000Z,30.8
2018-09-24T12:13:57.000Z,30.8
2018-09-24T12:15:42.000Z,30.7
2018-09-24T12:16:57.000Z,30.7
2018-09-24T12:18:57.000Z,30.8
2018-09-24T12:20:57.000Z,30.8
2018-09-24T12:21:57.000Z,30.8
2018-09-24T12:22:57.000Z,30.9
2018-09-24T12:24:42.000Z,31
2018-09-24T12:25:57.000Z,31
2018-09-24T12:26:57.000Z,31
2018-09-24T12:27:57.000Z,31
2018-09-24T12:28:57.000Z,31.1
2018-09-24T12:30:57.000Z,31.2
2018-09-24T12:32:57.000Z,31.1
2018-09-24T12:34:57.000Z,31
2018-09-24T12:36:57.000Z,31
2018-09-24T12:37:57.000Z,31
2018-09-24T12:38:57.000Z,31
2018-09-24T12:40:57.000Z,31
2018-09-24T12:42:57.000Z,30.9
2018-09-24T12:43:57.000Z,30.9
2018-09-24T12:45:57.000Z,31
2018-09-24T12:47:57.000Z,31.1
2018-09-24T12:49:57.000Z,31.1
2018-09-24T12:51:57.000Z,31.1
2018-09-24T12:53:42.000Z,31.1
2018-09-24T12:54:57.000Z,31.1
2018-09-24T12:55:57.000Z,31.1
2018-09-24T12:57:42.000Z,31.2
2018-09-24T12:58:57.000Z,31.1
2018-09-24T13:00:57.000Z,31.1
2018-09-24T13:01:57.000Z,31.1
2018-09-24T13:03:42.000Z,31.2
2018-09-24T13:04:57.000Z,31.2
2018-09-24T13:05:57.000Z,31.3
2018-09-24T13:07:57.000Z,31.4
2018-09-24T13:08:57.000Z,31.4
2018-09-24T13:10:57.000Z,31.5
2018-09-24T13:12:57.000Z,31.5
2018-09-24T13:14:57.000Z,31.6
2018-09-24T13:15:57.000Z,31.8
2018-09-24T13:17:57.000Z,33.3
2018-09-24T13:19:57.000Z,34.7
2018-09-24T13:21:57.000Z,34.7
2018-09-24T13:22:57.000Z,34.7
2018-09-24T13:23:57.000Z,34.7
2018-09-24T13:25:57.000Z,35.3
2018-09-24T13:26:57.000Z,35.6
2018-09-24T13:27:57.000Z,35.9
2018-09-24T13:28:57.000Z,36.1
2018-09-24T13:30:57.000Z,36.4
2018-09-24T13:32:57.000Z,36.4
2018-09-24T13:33:57.000Z,36.3
2018-09-24T13:35:57.000Z,36
2018-09-24T13:37:57.000Z,35.5
2018-09-24T13:39:57.000Z,35.1
2018-09-24T13:41:57.000Z,34.9
2018-09-24T13:43:57.000Z,34.7
2018-09-24T13:45:57.000Z,34.5
2018-09-24T13:46:57.000Z,34.4
2018-09-24T13:48:57.000Z,34.2
2018-09-24T13:49:57.000Z,34.1
2018-09-24T13:51:57.000Z,33.8
2018-09-24T13:53:57.000Z,33.3
2018-09-24T13:55:57.000Z,33
2018-09-24T13:57:57.000Z,32.7
2018-09-24T13:58:57.000Z,32.6
2018-09-24T13:59:57.000Z,32.5
2018-09-24T14:01:57.000Z,32.5
2018-09-24T14:02:57.000Z,32.4
2018-09-24T14:04:57.000Z,32.3
2018-09-24T14:05:57.000Z,32.2
2018-09-24T14:07:57.000Z,32.1
2018-09-24T14:09:42.000Z,32
2018-09-24T14:10:57.000Z,32
2018-09-24T14:11:57.000Z,31.9
2018-09-24T14:12:57.000Z,31.9
2018-09-24T14:14:57.000Z,31.9
2018-09-24T14:16:57.000Z,31.8
2018-09-24T14:18:57.000Z,31.7
2018-09-24T14:20:57.000Z,31.5
2018-09-24T14:21:57.000Z,31.5
2018-09-24T14:22:57.000Z,31.5
2018-09-24T14:24:57.000Z,31.5
2018-09-24T14:25:57.000Z,31.4
2018-09-24T14:27:57.000Z,31.4
2018-09-24T14:28:57.000Z,31.4
2018-09-24T14:29:57.000Z,31.4
2018-09-24T14:31:57.000Z,31.4
2018-09-24T14:33:57.000Z,31.3
2018-09-24T14:35:57.000Z,31.2
2018-09-24T14:36:57.000Z,31.2
2018-09-24T14:37:57.000Z,31.2
2018-09-24T14:39:57.000Z,31.2
2018-09-24T14:41:42.000Z,31.1
2018-09-24T14:42:57.000Z,31
2018-09-24T14:43:57.000Z,31
2018-09-24T14:44:57.000Z,31
2018-09-24T14:46:57.000Z,31
2018-09-24T14:48:57.000Z,30.9
2018-09-24T14:50:42.000Z,30.9
2018-09-24T14:51:57.000Z,30.8
2018-09-24T14:53:57.000Z,30.8
2018-09-24T14:54:57.000Z,30.8
2018-09-24T16:11:57.000Z,27.9
2018-09-24T16:13:54.000Z,28.2
2018-09-24T16:14:54.000Z,28.4
2018-09-24T16:16:54.000Z,28.7
2018-09-24T16:17:54.000Z,28.9
2018-09-24T16:19:39.000Z,29.2
2018-09-24T16:20:54.000Z,29.3
2018-09-24T16:22:54.000Z,29.4
2018-09-24T16:24:54.000Z,29.5
2018-09-24T16:26:54.000Z,29.5
2018-09-24T16:27:54.000Z,29.6
2018-09-24T16:28:54.000Z,29.6
2018-09-24T16:30:54.000Z,29.8
2018-09-24T16:32:54.000Z,29.7
2018-09-24T16:34:54.000Z,29.6
2018-09-24T16:36:54.000Z,29.6
2018-09-24T16:37:54.000Z,29.7
2018-09-24T16:39:39.000Z,29.7
2018-09-24T16:40:54.000Z,29.7
2018-09-24T16:42:54.000Z,29.6
2018-09-24T16:44:54.000Z,29.6
2018-09-24T16:45:54.000Z,29.6
2018-09-24T16:47:54.000Z,29.6
2018-09-24T16:48:54.000Z,29.7
2018-09-24T16:50:54.000Z,29.8
2018-09-24T16:52:54.000Z,29.8
2018-09-24T16:53:54.000Z,29.9
2018-09-24T16:55:54.000Z,29.9
2018-09-24T16:56:54.000Z,29.9
2018-09-24T16:58:54.000Z,29.9
2018-09-24T16:59:54.000Z,29.9
2018-09-24T17:00:54.000Z,29.9
2018-09-24T17:02:54.000Z,29.9
2018-09-24T17:05:49.000Z,30.2
2018-09-24T17:06:49.000Z,30.2
2018-09-24T17:07:49.000Z,30.3
2018-09-24T17:09:49.000Z,30.2
2018-09-24T17:11:49.000Z,30.1
2018-09-24T17:13:49.000Z,30.1
2018-09-24T17:14:49.000Z,30
2018-09-24T17:16:49.000Z,30
2018-09-24T17:17:49.000Z,30
2018-09-24T17:19:49.000Z,29.9
2018-09-24T17:20:49.000Z,29.9
2018-09-24T17:21:49.000Z,29.9
2018-09-24T17:22:49.000Z,30
2018-09-24T17:24:49.000Z,30
2018-09-24T17:25:49.000Z,30
2018-09-24T17:27:49.000Z,30
2018-09-24T17:29:49.000Z,29.9
2018-09-24T17:30:49.000Z,29.8
2018-09-24T17:31:49.000Z,29.8
2018-09-24T17:33:49.000Z,29.8
2018-09-24T17:35:49.000Z,29.7
2018-09-24T17:36:49.000Z,29.7
2018-09-24T17:38:49.000Z,29.7
2018-09-24T17:39:49.000Z,29.7
2018-09-24T17:41:49.000Z,29.7
2018-09-24T17:42:49.000Z,29.6
2018-09-24T17:44:49.000Z,29.7
2018-09-24T17:46:49.000Z,29.6
2018-09-24T20:56:06.000Z,26.7
2018-09-24T22:28:58.000Z,26.4
2018-09-24T22:30:07.000Z,26.5
2018-09-24T22:31:07.000Z,26.6
2018-09-24T22:32:07.000Z,26.9
2018-09-24T22:34:07.000Z,27.3
2018-09-24T22:36:07.000Z,27.5
2018-09-24T22:37:52.000Z,27.6
2018-09-24T22:39:07.000Z,27.7
2018-09-24T22:40:07.000Z,27.8
2018-09-24T22:41:07.000Z,27.8
2018-09-24T22:43:07.000Z,28
2018-09-24T22:45:07.000Z,28
2018-09-24T22:46:07.000Z,28.1
2018-09-24T22:47:07.000Z,28.2
2018-09-24T22:49:07.000Z,28.3
2018-09-24T22:51:07.000Z,28.3
2018-09-24T22:52:07.000Z,28.3
2018-09-24T22:54:07.000Z,28.4
2018-09-24T22:56:07.000Z,28.3
2018-09-24T22:57:52.000Z,28.3
2018-09-24T22:59:07.000Z,28.2
2018-09-24T23:00:07.000Z,28.2
2018-09-24T23:01:07.000Z,28.3
2018-09-24T23:02:52.000Z,28.4
2018-09-24T23:04:07.000Z,28.4
2018-09-24T23:05:07.000Z,28.4
2018-09-24T23:07:07.000Z,28.5
2018-09-24T23:09:07.000Z,28.4
2018-09-24T23:10:07.000Z,28.4
2018-09-24T23:12:07.000Z,28.5
2018-09-24T23:14:07.000Z,28.4
2018-09-24T23:16:07.000Z,28.4
2018-09-24T23:18:07.000Z,28.4
2018-09-24T23:19:07.000Z,28.4
2018-09-24T23:21:07.000Z,28.3
2018-09-24T23:23:07.000Z,28.3
2018-09-24T23:25:07.000Z,28.3
2018-09-24T23:27:07.000Z,28.3
2018-09-24T23:29:07.000Z,28.3
2018-09-24T23:30:07.000Z,28.3
2018-09-24T23:32:07.000Z,28.3
2018-09-24T23:34:07.000Z,28.3
2018-09-24T23:35:08.000Z,28.3
2018-09-24T23:37:08.000Z,28.4
2018-09-24T23:39:08.000Z,28.3
2018-09-24T23:40:08.000Z,28.3
2018-09-24T23:42:07.000Z,28.4
2018-09-24T23:43:08.000Z,28.4
2018-09-24T23:44:08.000Z,28.5
2018-09-24T23:46:08.000Z,28.5
2018-09-24T23:48:08.000Z,28.5
2018-09-24T23:50:08.000Z,28.4
2018-09-24T23:52:08.000Z,28.3
2018-09-24T23:53:52.000Z,28.3
2018-09-24T23:55:08.000Z,28.3
2018-09-24T23:56:08.000Z,28.3
2018-09-24T23:58:08.000Z,28.3
